createdAt,value
2023-01-30T00:02:08.971Z,19.30
2023-01-30T00:05:14.627Z,20.73
2023-01-30T00:08:17.268Z,23.27
2023-01-30T00:11:22.132Z,19.73
2023-01-30T00:14:24.723Z,17.23
2023-01-30T00:17:27.649Z,24.07
2023-01-30T00:20:30.643Z,17.40
2023-01-30T00:23:34.566Z,22.77
2023-01-30T00:32:45.879Z,23.83
2023-01-30T00:35:49.349Z,17.37
2023-01-30T00:38:52.097Z,20.00
2023-01-30T00:42:13.740Z,15.00
2023-01-30T00:45:33.981Z,20.57
2023-01-30T00:48:36.622Z,18.57
2023-01-30T00:51:39.225Z,22.95
2023-01-30T00:54:41.936Z,19.63
2023-01-30T00:57:47.049Z,21.30
2023-01-30T01:00:50.345Z,16.30
2023-01-30T01:03:52.989Z,19.63
2023-01-30T01:06:55.586Z,19.27
2023-01-30T01:09:59.284Z,16.75
2023-01-30T01:13:03.454Z,21.27
2023-01-30T01:16:07.074Z,19.07
2023-01-30T01:19:09.722Z,15.23
2023-01-30T01:22:12.464Z,20.40
2023-01-30T01:25:15.264Z,19.13
2023-01-30T01:28:22.265Z,17.48
2023-01-30T01:31:25.665Z,19.93
2023-01-30T01:34:28.506Z,19.25
2023-01-30T01:37:31.540Z,19.10
2023-01-30T01:40:51.655Z,16.83
2023-01-30T01:44:04.454Z,20.20
2023-01-30T01:47:09.767Z,21.87
2023-01-30T01:50:15.180Z,22.67
2023-01-30T01:53:20.247Z,16.67
2023-01-30T01:56:23.845Z,18.33
2023-01-30T01:59:31.057Z,23.88
2023-01-30T02:02:35.210Z,18.97
2023-01-30T02:05:40.287Z,22.40
2023-01-30T02:08:45.925Z,24.43
2023-01-30T02:11:50.904Z,21.80
2023-01-30T02:14:56.260Z,21.27
2023-01-30T02:17:59.049Z,17.30
2023-01-30T02:21:25.313Z,19.20
2023-01-30T02:24:37.122Z,18.40
2023-01-30T02:27:55.190Z,16.97
2023-01-30T02:31:11.791Z,16.57
2023-01-30T02:34:27.642Z,17.37
2023-01-30T02:37:36.588Z,20.60
2023-01-30T02:40:43.613Z,17.97
2023-01-30T02:43:52.823Z,18.30
2023-01-30T02:46:58.840Z,17.90
2023-01-30T02:50:05.562Z,19.33
2023-01-30T02:53:08.856Z,21.07
2023-01-30T02:56:11.510Z,14.57
2023-01-30T02:59:15.819Z,16.20
2023-01-30T03:02:36.452Z,19.47
2023-01-30T03:05:46.745Z,17.27
2023-01-30T03:08:56.670Z,21.67
2023-01-30T03:12:04.122Z,17.60
2023-01-30T03:15:11.672Z,20.90
2023-01-30T03:18:16.139Z,19.27
2023-01-30T03:21:19.182Z,19.27
2023-01-30T03:24:22.033Z,17.70
2023-01-30T03:27:25.138Z,15.77
2023-01-30T03:30:28.462Z,16.75
2023-01-30T03:33:32.709Z,11.80
2023-01-30T03:36:35.774Z,15.50
2023-01-30T03:39:38.520Z,15.48
2023-01-30T03:42:42.042Z,15.47
2023-01-30T03:45:44.836Z,13.80
2023-01-30T03:48:48.742Z,15.57
2023-01-30T03:54:54.548Z,13.40
2023-01-30T03:57:57.792Z,14.33
2023-01-30T04:01:00.500Z,15.07
2023-01-30T04:04:04.590Z,11.43
2023-01-30T04:07:07.276Z,9.80
2023-01-30T04:10:10.889Z,12.97
2023-01-30T04:13:13.737Z,12.90
2023-01-30T04:16:18.321Z,14.18
2023-01-30T04:19:22.363Z,10.10
2023-01-30T04:22:25.071Z,12.70
2023-01-30T04:25:27.772Z,12.03
2023-01-30T04:28:30.766Z,10.23
2023-01-30T04:31:33.872Z,12.43
2023-01-30T04:34:37.952Z,9.93
2023-01-30T04:37:40.778Z,10.77
2023-01-30T04:40:43.481Z,14.70
2023-01-30T04:43:46.273Z,11.77
2023-01-30T04:46:48.907Z,9.17
2023-01-30T04:49:53.693Z,13.87
2023-01-30T04:52:56.307Z,8.50
2023-01-30T04:55:59.010Z,14.00
2023-01-30T04:59:01.771Z,10.00
2023-01-30T05:02:06.941Z,11.87
2023-01-30T05:05:11.360Z,12.73
2023-01-30T05:08:14.018Z,9.97
2023-01-30T05:11:16.789Z,10.53
2023-01-30T05:14:19.383Z,8.00
2023-01-30T05:17:22.126Z,9.55
2023-01-30T05:20:26.326Z,8.47
2023-01-30T05:23:28.928Z,6.60
2023-01-30T05:26:32.295Z,9.67
2023-01-30T05:29:35.448Z,11.50
2023-01-30T05:32:38.284Z,11.77
2023-01-30T05:35:47.713Z,11.70
2023-01-30T05:38:50.652Z,7.93
2023-01-30T05:41:53.244Z,12.65
2023-01-30T05:44:55.953Z,10.43
2023-01-30T05:48:01.333Z,13.47
2023-01-30T05:51:06.003Z,14.87
2023-01-30T05:54:08.902Z,9.70
2023-01-30T05:57:11.579Z,13.55
2023-01-30T06:00:15.558Z,15.20
2023-01-30T06:06:22.471Z,15.40
2023-01-30T06:09:25.339Z,9.83
2023-01-30T06:12:28.007Z,12.63
2023-01-30T06:15:30.954Z,9.37
2023-01-30T06:18:33.668Z,8.55
2023-01-30T06:21:37.807Z,9.10
2023-01-30T06:24:40.390Z,9.77
2023-01-30T06:27:43.911Z,8.13
2023-01-30T06:30:46.621Z,10.65
2023-01-30T06:33:50.160Z,8.33
2023-01-30T06:36:54.114Z,10.10
2023-01-30T06:39:57.000Z,10.53
2023-01-30T06:42:59.671Z,8.55
2023-01-30T06:46:02.424Z,10.37
2023-01-30T06:49:05.455Z,11.77
2023-01-30T06:52:09.465Z,10.15
2023-01-30T06:55:14.218Z,8.40
2023-01-30T06:58:16.921Z,10.57
2023-01-30T07:01:21.234Z,12.40
2023-01-30T07:04:33.146Z,8.70
2023-01-30T07:07:41.692Z,10.87
2023-01-30T07:10:47.429Z,12.50
2023-01-30T07:13:51.848Z,10.70
2023-01-30T07:16:58.746Z,9.80
2023-01-30T07:20:09.673Z,10.17
2023-01-30T07:26:48.228Z,10.30
2023-01-30T07:29:57.092Z,12.57
2023-01-30T07:33:05.708Z,9.93
2023-01-30T07:36:12.314Z,11.50
2023-01-30T07:39:31.776Z,10.80
2023-01-30T07:42:37.451Z,11.13
2023-01-30T07:45:57.085Z,11.73
2023-01-30T07:49:09.155Z,10.90
2023-01-30T07:52:12.554Z,9.83
2023-01-30T07:55:19.345Z,12.57
2023-01-30T07:58:24.166Z,9.87
2023-01-30T08:01:26.993Z,10.87
2023-01-30T08:04:32.030Z,7.63
2023-01-30T08:07:34.813Z,9.50
2023-01-30T08:10:42.549Z,7.33
2023-01-30T08:13:47.299Z,12.23
2023-01-30T08:16:52.706Z,10.03
2023-01-30T08:19:56.537Z,8.93
2023-01-30T08:23:10.426Z,7.38
2023-01-30T08:26:14.509Z,11.27
2023-01-30T08:29:18.610Z,10.07
2023-01-30T08:32:23.024Z,9.57
2023-01-30T08:35:31.754Z,5.07
2023-01-30T08:38:37.189Z,8.80
2023-01-30T08:41:46.469Z,8.93
2023-01-30T08:44:51.157Z,8.27
2023-01-30T08:47:54.008Z,8.77
2023-01-30T08:50:58.974Z,8.27
2023-01-30T08:54:21.710Z,6.30
2023-01-30T08:57:25.808Z,8.40
2023-01-30T09:00:37.834Z,8.97
2023-01-30T09:03:40.803Z,9.23
2023-01-30T09:06:44.597Z,7.90
2023-01-30T09:13:02.175Z,6.57
2023-01-30T09:16:09.454Z,7.67
2023-01-30T09:19:17.868Z,6.50
2023-01-30T09:22:30.664Z,6.40
2023-01-30T09:25:35.101Z,6.00
2023-01-30T09:28:43.805Z,7.50
2023-01-30T09:31:47.432Z,6.20
2023-01-30T09:34:54.115Z,6.88
2023-01-30T09:41:55.973Z,7.10
2023-01-30T09:45:18.033Z,11.30
2023-01-30T09:48:25.758Z,8.43
2023-01-30T09:51:52.193Z,4.80
2023-01-30T09:55:16.020Z,5.10
2023-01-30T09:59:03.441Z,5.82
2023-01-30T10:02:39.777Z,6.67
2023-01-30T10:06:00.531Z,4.65
2023-01-30T10:13:07.249Z,4.83
2023-01-30T10:16:29.442Z,7.40
2023-01-30T10:20:00.157Z,4.77
2023-01-30T10:23:34.328Z,4.47
2023-01-30T10:26:38.933Z,3.47
2023-01-30T10:30:24.096Z,2.78
2023-01-30T10:33:39.071Z,3.23
2023-01-30T10:37:13.989Z,3.77
2023-01-30T10:40:24.826Z,2.60
2023-01-30T10:43:43.459Z,3.90
2023-01-30T10:47:41.754Z,3.43
2023-01-30T10:51:00.308Z,3.17
2023-01-30T10:54:26.375Z,3.00
2023-01-30T11:05:49.699Z,2.73
2023-01-30T11:09:02.798Z,2.37
2023-01-30T11:12:34.051Z,1.70
2023-01-30T11:16:16.531Z,1.47
2023-01-30T11:19:39.081Z,2.37
2023-01-30T11:23:10.168Z,2.17
2023-01-30T11:26:55.167Z,2.30
2023-01-30T11:30:15.255Z,8.03
2023-01-30T11:33:25.068Z,2.60
2023-01-30T11:36:31.251Z,2.30
2023-01-30T11:40:05.718Z,3.63
2023-01-30T11:46:27.046Z,3.57
2023-01-30T11:49:48.123Z,2.30
2023-01-30T11:53:03.887Z,2.80
2023-01-30T11:56:15.419Z,4.10
2023-01-30T11:59:26.136Z,2.53
2023-01-30T12:02:33.970Z,5.03
2023-01-30T12:05:42.348Z,6.67
2023-01-30T12:08:45.354Z,3.97
2023-01-30T12:11:48.242Z,3.67
2023-01-30T12:14:57.418Z,5.25
2023-01-30T12:18:07.234Z,3.23
2023-01-30T12:21:15.136Z,3.60
2023-01-30T12:24:23.366Z,3.60
2023-01-30T12:27:33.139Z,2.43
2023-01-30T12:33:44.134Z,2.83
2023-01-30T12:36:51.694Z,3.47
2023-01-30T12:40:07.649Z,4.40
2023-01-30T12:43:35.309Z,3.80
2023-01-30T12:47:05.102Z,3.43
2023-01-30T12:50:58.766Z,10.63
2023-01-30T12:54:15.167Z,3.73
2023-01-30T12:57:31.430Z,5.63
2023-01-30T13:01:05.269Z,12.10
2023-01-30T13:04:15.288Z,6.32
2023-01-30T13:07:23.341Z,6.50
2023-01-30T13:10:32.428Z,4.90
2023-01-30T13:13:48.322Z,5.00
2023-01-30T13:17:01.600Z,5.27
2023-01-30T13:20:06.740Z,5.25
2023-01-30T13:23:18.852Z,4.20
2023-01-30T13:26:41.840Z,4.70
2023-01-30T13:29:45.794Z,4.43
2023-01-30T13:33:02.910Z,7.33
2023-01-30T13:36:12.810Z,5.77
2023-01-30T13:39:18.890Z,4.13
2023-01-30T13:42:32.904Z,8.50
2023-01-30T13:45:37.885Z,6.32
2023-01-30T13:48:52.698Z,13.13
2023-01-30T13:51:58.762Z,6.67
2023-01-30T13:55:12.507Z,7.73
2023-01-30T13:58:30.449Z,6.68
2023-01-30T14:02:14.257Z,3.70
2023-01-30T14:05:59.479Z,5.67
2023-01-30T14:09:06.082Z,5.83
2023-01-30T14:12:18.548Z,2.70
2023-01-30T14:15:28.950Z,3.37
2023-01-30T14:18:36.291Z,4.03
2023-01-30T14:21:49.293Z,3.40
2023-01-30T14:25:38.121Z,3.67
2023-01-30T14:28:48.531Z,1.97
2023-01-30T14:31:57.194Z,2.23
2023-01-30T14:35:21.570Z,2.60
2023-01-30T14:41:43.238Z,1.87
2023-01-30T14:45:10.198Z,2.53
2023-01-30T14:48:54.970Z,1.47
2023-01-30T14:52:02.136Z,4.88
2023-01-30T14:55:05.845Z,1.33
2023-01-30T15:01:18.539Z,1.93
2023-01-30T15:04:34.167Z,2.07
2023-01-30T15:08:00.861Z,6.10
2023-01-30T15:14:53.340Z,2.43
2023-01-30T15:18:13.950Z,3.33
2023-01-30T15:21:40.803Z,2.27
2023-01-30T15:25:13.587Z,4.90
2023-01-30T15:28:33.843Z,2.23
2023-01-30T15:31:36.652Z,3.50
2023-01-30T15:34:41.807Z,4.70
2023-01-30T15:37:50.978Z,3.07
2023-01-30T15:40:54.806Z,3.17
2023-01-30T15:44:06.224Z,5.20
2023-01-30T15:47:23.335Z,4.20
2023-01-30T15:50:26.204Z,2.27
2023-01-30T15:53:32.207Z,2.50
2023-01-30T15:56:35.018Z,4.27
2023-01-30T15:59:40.178Z,6.87
2023-01-30T16:02:44.198Z,10.07
2023-01-30T16:05:50.488Z,4.57
2023-01-30T16:09:00.355Z,3.67
2023-01-30T16:12:03.337Z,4.57
2023-01-30T16:15:18.832Z,7.90
2023-01-30T16:18:30.385Z,3.80
2023-01-30T16:21:34.447Z,2.23
2023-01-30T16:24:42.103Z,4.30
2023-01-30T16:28:16.095Z,5.53
2023-01-30T16:31:19.278Z,5.82
2023-01-30T16:34:28.773Z,3.65
2023-01-30T16:37:31.841Z,3.27
2023-01-30T16:40:46.341Z,4.72
2023-01-30T16:44:08.519Z,6.43
2023-01-30T16:47:24.013Z,7.00
2023-01-30T16:50:26.818Z,6.70
2023-01-30T16:53:32.130Z,3.83
2023-01-30T16:56:36.769Z,5.57
2023-01-30T16:59:40.279Z,3.53
2023-01-30T17:02:43.617Z,3.50
2023-01-30T17:05:48.751Z,4.63
2023-01-30T17:08:55.116Z,5.73
2023-01-30T17:12:01.369Z,4.50
2023-01-30T17:15:29.889Z,4.47
2023-01-30T17:18:32.504Z,3.63
2023-01-30T17:21:44.195Z,7.03
2023-01-30T17:24:46.994Z,5.00
2023-01-30T17:27:58.622Z,3.80
2023-01-30T17:31:03.732Z,5.30
2023-01-30T17:34:06.482Z,7.93
2023-01-30T17:37:11.772Z,5.77
2023-01-30T17:40:17.062Z,5.77
2023-01-30T17:43:21.341Z,6.47
2023-01-30T17:46:28.222Z,6.73
2023-01-30T17:49:32.910Z,3.20
2023-01-30T17:52:40.073Z,6.93
2023-01-30T17:55:44.886Z,6.30
2023-01-30T17:58:50.938Z,5.60
2023-01-30T18:01:54.610Z,4.10
2023-01-30T18:04:57.374Z,7.10
2023-01-30T18:08:14.408Z,6.67
2023-01-30T18:11:26.374Z,6.00
2023-01-30T18:14:32.984Z,8.70
2023-01-30T18:18:05.495Z,5.67
2023-01-30T18:21:08.519Z,6.57
2023-01-30T18:24:14.271Z,4.32
2023-01-30T18:27:22.451Z,3.70
2023-01-30T18:30:28.757Z,6.27
2023-01-30T18:33:34.396Z,6.87
2023-01-30T18:36:37.519Z,3.00
2023-01-30T18:39:40.392Z,6.10
2023-01-30T18:42:43.312Z,7.80
2023-01-30T18:45:51.267Z,5.40
2023-01-30T18:48:54.212Z,6.13
2023-01-30T18:51:57.085Z,6.28
2023-01-30T18:55:00.455Z,8.43
2023-01-30T18:58:03.141Z,8.45
2023-01-30T19:01:16.907Z,8.37
2023-01-30T19:04:19.628Z,6.82
2023-01-30T19:07:22.331Z,6.67
2023-01-30T19:10:30.194Z,4.77
2023-01-30T19:13:36.568Z,6.53
2023-01-30T19:16:41.067Z,5.37
2023-01-30T19:19:46.184Z,10.27
2023-01-30T19:22:49.772Z,6.57
2023-01-30T19:25:55.709Z,9.23
2023-01-30T19:28:59.707Z,7.30
2023-01-30T19:32:04.007Z,7.47
2023-01-30T19:35:07.854Z,6.70
2023-01-30T19:38:10.704Z,9.10
2023-01-30T19:41:14.352Z,6.93
2023-01-30T19:44:17.225Z,8.13
2023-01-30T19:47:23.283Z,5.38
2023-01-30T19:50:26.039Z,9.20
2023-01-30T19:53:28.842Z,7.07
2023-01-30T19:56:32.176Z,7.60
2023-01-30T19:59:39.469Z,5.28
2023-01-30T20:02:44.360Z,9.03
2023-01-30T20:05:47.027Z,7.97
2023-01-30T20:08:54.356Z,12.00
2023-01-30T20:11:57.070Z,7.77
2023-01-30T20:14:59.935Z,15.27
2023-01-30T20:18:03.922Z,8.67
2023-01-30T20:21:08.450Z,5.67
2023-01-30T20:24:12.872Z,9.33
2023-01-30T20:27:15.589Z,6.50
2023-01-30T20:30:19.826Z,9.70
2023-01-30T20:33:24.720Z,8.73
2023-01-30T20:36:28.014Z,8.23
2023-01-30T20:39:30.721Z,4.72
2023-01-30T20:42:35.736Z,8.57
2023-01-30T20:45:38.533Z,6.73
2023-01-30T20:48:43.261Z,6.07
2023-01-30T20:51:46.994Z,7.10
2023-01-30T20:54:50.027Z,6.95
2023-01-30T20:57:52.801Z,5.72
2023-01-30T21:00:55.716Z,7.87
2023-01-30T21:03:59.855Z,8.02
2023-01-30T21:07:02.440Z,12.03
2023-01-30T21:10:09.355Z,12.60
2023-01-30T21:13:15.775Z,9.40
2023-01-30T21:16:21.746Z,8.00
2023-01-30T21:19:25.813Z,11.60
2023-01-30T21:22:29.759Z,10.93
2023-01-30T21:25:37.168Z,6.82
2023-01-30T21:28:48.512Z,13.73
2023-01-30T21:31:51.586Z,10.13
2023-01-30T21:34:56.799Z,8.70
2023-01-30T21:38:16.987Z,7.77
2023-01-30T21:41:38.962Z,13.47
2023-01-30T21:44:41.818Z,6.60
2023-01-30T21:47:44.528Z,4.20
2023-01-30T21:50:50.961Z,7.27
2023-01-30T21:53:54.037Z,8.27
2023-01-30T21:56:56.999Z,4.32
2023-01-30T21:59:59.847Z,9.95
2023-01-30T22:03:02.485Z,6.33
2023-01-30T22:06:07.632Z,6.07
2023-01-30T22:09:13.798Z,5.13
2023-01-30T22:12:16.415Z,14.13
2023-01-30T22:15:20.797Z,6.80
2023-01-30T22:18:23.596Z,6.57
2023-01-30T22:21:28.960Z,7.43
2023-01-30T22:24:31.751Z,6.63
2023-01-30T22:27:34.588Z,11.40
2023-01-30T22:30:37.357Z,6.20
2023-01-30T22:33:40.607Z,13.83
2023-01-30T22:36:44.615Z,9.35
2023-01-30T22:39:47.394Z,6.20
2023-01-30T22:42:50.212Z,9.20
2023-01-30T22:45:52.765Z,8.17
2023-01-30T22:48:55.482Z,7.40
2023-01-30T22:52:01.590Z,8.33
2023-01-30T22:55:04.305Z,8.50
2023-01-30T22:58:07.147Z,6.63
2023-01-30T23:01:13.351Z,6.18
2023-01-30T23:04:18.790Z,7.80
2023-01-30T23:07:22.767Z,10.50
2023-01-30T23:10:25.582Z,8.87
2023-01-30T23:13:28.188Z,8.13
2023-01-30T23:16:33.503Z,10.57
2023-01-30T23:19:35.636Z,7.80
2023-01-30T23:22:40.167Z,7.87
2023-01-30T23:25:43.534Z,7.37
2023-01-30T23:28:46.305Z,5.55
2023-01-30T23:31:49.117Z,8.43
2023-01-30T23:34:51.681Z,8.03
2023-01-30T23:38:13.127Z,5.90
2023-01-30T23:41:17.111Z,9.07
2023-01-30T23:44:20.017Z,5.20
2023-01-30T23:47:22.578Z,9.38
2023-01-30T23:50:25.164Z,9.00
2023-01-30T23:53:29.313Z,4.03
2023-01-30T23:56:34.048Z,7.70
2023-01-30T23:59:37.389Z,10.30
